createdAt,value
2019-01-09T00:00:50.025Z,2.57
2019-01-09T00:02:50.039Z,2.56
2019-01-09T00:04:50.342Z,2.53
2019-01-09T00:06:50.518Z,2.52
2019-01-09T00:08:50.553Z,2.53
2019-01-09T00:10:50.609Z,2.54
2019-01-09T00:12:50.694Z,2.53
2019-01-09T00:14:50.631Z,2.53
2019-01-09T00:16:49.834Z,2.50
2019-01-09T00:18:49.882Z,2.49
2019-01-09T00:20:49.977Z,2.49
2019-01-09T00:22:49.996Z,2.51
2019-01-09T00:24:49.979Z,2.50
2019-01-09T00:26:50.233Z,2.45
2019-01-09T00:28:50.405Z,2.39
2019-01-09T00:30:50.362Z,2.36
2019-01-09T00:32:50.406Z,2.35
2019-01-09T00:34:50.655Z,2.33
2019-01-09T00:36:49.804Z,2.33
2019-01-09T00:38:49.822Z,2.32
2019-01-09T00:40:49.891Z,2.34
2019-01-09T00:42:49.835Z,2.34
2019-01-09T00:44:49.834Z,2.33
2019-01-09T00:46:50.047Z,2.34
2019-01-09T00:48:50.053Z,2.33
2019-01-09T00:50:49.986Z,2.31
2019-01-09T00:52:49.966Z,2.30
2019-01-09T00:54:49.982Z,2.31
2019-01-09T00:56:50.191Z,2.31
2019-01-09T00:58:50.144Z,2.32
2019-01-09T01:00:50.145Z,2.36
2019-01-09T01:02:50.134Z,2.38
2019-01-09T01:04:50.319Z,2.38
2019-01-09T01:06:50.670Z,2.37
2019-01-09T01:08:49.787Z,2.36
2019-01-09T01:10:49.808Z,2.41
2019-01-09T01:12:49.811Z,2.41
2019-01-09T01:14:49.864Z,2.39
2019-01-09T01:16:50.101Z,2.33
2019-01-09T01:18:50.133Z,2.25
2019-01-09T01:20:50.107Z,2.14
2019-01-09T01:22:50.087Z,2.06
2019-01-09T01:24:50.121Z,1.99
2019-01-09T01:26:49.992Z,1.97
2019-01-09T01:28:49.990Z,1.94
2019-01-09T01:30:49.931Z,1.94
2019-01-09T01:32:49.938Z,1.94
2019-01-09T01:34:50.205Z,1.96
2019-01-09T01:36:50.386Z,2.00
2019-01-09T01:38:50.343Z,2.00
2019-01-09T01:40:49.793Z,2.02
2019-01-09T01:42:49.725Z,2.11
2019-01-09T01:44:49.686Z,2.11
2019-01-09T01:46:49.846Z,2.17
2019-01-09T01:48:49.827Z,2.22
2019-01-09T01:50:50.256Z,2.23
2019-01-09T01:52:50.150Z,2.23
2019-01-09T01:54:50.127Z,2.19
2019-01-09T01:56:50.266Z,2.12
2019-01-09T01:58:50.309Z,2.07
2019-01-09T02:00:50.257Z,1.86
2019-01-09T02:02:50.222Z,1.77
2019-01-09T02:04:50.459Z,1.57
2019-01-09T02:06:50.446Z,1.44
2019-01-09T02:08:50.530Z,1.33
2019-01-09T02:10:50.542Z,1.21
2019-01-09T02:12:50.647Z,1.17
2019-01-09T02:14:49.714Z,1.12
2019-01-09T02:16:49.930Z,1.07
2019-01-09T02:18:50.039Z,1.03
2019-01-09T02:20:50.106Z,0.97
2019-01-09T02:22:50.173Z,0.97
2019-01-09T02:24:50.197Z,0.98
2019-01-09T02:26:50.471Z,1.00
2019-01-09T02:28:50.562Z,1.05
2019-01-09T02:30:49.776Z,1.05
2019-01-09T02:32:49.840Z,1.08
2019-01-09T02:34:50.293Z,1.14
2019-01-09T02:36:50.720Z,1.16
2019-01-09T02:38:49.895Z,1.20
2019-01-09T02:40:52.418Z,1.20
2019-01-09T02:42:50.494Z,1.19
2019-01-09T02:44:50.405Z,1.18
2019-01-09T02:46:50.622Z,1.18
2019-01-09T02:48:50.679Z,1.18
2019-01-09T02:50:49.737Z,1.20
2019-01-09T02:52:49.788Z,1.19
2019-01-09T02:54:49.781Z,1.19
2019-01-09T02:56:50.025Z,1.17
2019-01-09T02:58:50.106Z,1.17
2019-01-09T03:00:50.143Z,1.16
2019-01-09T03:02:50.191Z,1.16
2019-01-09T03:04:50.469Z,1.17
2019-01-09T03:06:50.693Z,1.19
2019-01-09T03:08:49.855Z,1.22
2019-01-09T03:10:49.976Z,1.24
2019-01-09T03:12:50.090Z,1.25
2019-01-09T03:14:50.160Z,1.26
2019-01-09T03:16:50.353Z,1.30
2019-01-09T03:18:50.352Z,1.32
2019-01-09T03:20:50.370Z,1.34
2019-01-09T03:22:50.448Z,1.36
2019-01-09T03:24:50.424Z,1.37
2019-01-09T03:26:50.556Z,1.36
2019-01-09T03:28:50.451Z,1.36
2019-01-09T03:30:50.478Z,1.40
2019-01-09T03:32:50.518Z,1.40
2019-01-09T03:34:49.883Z,1.39
2019-01-09T03:36:50.063Z,1.41
2019-01-09T03:38:50.028Z,1.45
2019-01-09T03:40:50.036Z,1.46
2019-01-09T03:42:50.022Z,1.45
2019-01-09T03:44:50.112Z,1.44
2019-01-09T03:46:50.195Z,1.36
2019-01-09T03:48:50.219Z,1.36
2019-01-09T03:50:50.173Z,1.26
2019-01-09T03:52:50.184Z,1.25
2019-01-09T03:54:50.176Z,1.25
2019-01-09T03:56:50.436Z,1.25
2019-01-09T03:58:50.534Z,1.24
2019-01-09T04:00:50.512Z,1.25
2019-01-09T04:02:50.527Z,1.25
2019-01-09T04:04:49.871Z,1.26
2019-01-09T04:06:50.024Z,1.26
2019-01-09T04:08:50.023Z,1.26
2019-01-09T04:10:50.156Z,1.26
2019-01-09T04:12:50.096Z,1.25
2019-01-09T04:14:50.105Z,1.26
2019-01-09T04:16:50.313Z,1.28
2019-01-09T04:18:50.315Z,1.32
2019-01-09T04:20:50.303Z,1.33
2019-01-09T04:22:50.336Z,1.36
2019-01-09T04:24:50.353Z,1.38
2019-01-09T04:26:50.561Z,1.40
2019-01-09T04:28:50.652Z,1.43
2019-01-09T04:30:50.570Z,1.49
2019-01-09T04:32:50.623Z,1.47
2019-01-09T04:34:50.079Z,1.35
2019-01-09T04:36:52.289Z,1.27
2019-01-09T04:38:50.264Z,1.09
2019-01-09T04:40:50.278Z,0.97
2019-01-09T04:42:50.299Z,0.92
2019-01-09T04:44:50.378Z,0.79
2019-01-09T04:46:49.873Z,0.66
2019-01-09T04:48:50.002Z,0.48
2019-01-09T04:50:50.029Z,0.48
2019-01-09T04:52:50.081Z,0.30
2019-01-09T04:54:50.084Z,0.16
2019-01-09T04:56:50.317Z,0.08
2019-01-09T04:58:50.339Z,0.02
2019-01-09T05:46:49.693Z,0.03
2019-01-09T05:48:50.697Z,0.13
2019-01-09T05:50:49.830Z,0.18
2019-01-09T05:52:49.894Z,0.24
2019-01-09T05:54:49.877Z,0.27
2019-01-09T05:56:50.114Z,0.33
2019-01-09T05:58:50.113Z,0.35
2019-01-09T06:00:50.156Z,0.36
2019-01-09T06:02:50.188Z,0.37
2019-01-09T06:04:50.439Z,0.42
2019-01-09T06:06:50.666Z,0.43
2019-01-09T06:08:50.677Z,0.47
2019-01-09T06:10:50.713Z,0.51
2019-01-09T06:12:49.711Z,0.51
2019-01-09T06:14:49.716Z,0.50
2019-01-09T06:16:49.965Z,0.49
2019-01-09T06:18:50.009Z,0.50
2019-01-09T06:20:50.036Z,0.51
2019-01-09T06:22:50.045Z,0.51
2019-01-09T06:24:50.034Z,0.51
2019-01-09T06:26:50.160Z,0.51
2019-01-09T06:28:50.166Z,0.51
2019-01-09T06:30:50.183Z,0.51
2019-01-09T06:32:50.188Z,0.52
2019-01-09T06:34:50.480Z,0.53
2019-01-09T06:36:50.697Z,0.52
2019-01-09T06:38:49.707Z,0.54
2019-01-09T06:40:50.701Z,0.55
2019-01-09T06:42:50.660Z,0.54
2019-01-09T06:44:49.763Z,0.54
2019-01-09T06:46:49.986Z,0.50
2019-01-09T06:48:49.906Z,0.48
2019-01-09T06:50:49.910Z,0.46
2019-01-09T06:52:49.903Z,0.46
2019-01-09T06:54:49.997Z,0.43
2019-01-09T06:56:50.259Z,0.38
2019-01-09T06:58:50.287Z,0.36
2019-01-09T07:00:50.285Z,0.34
2019-01-09T07:02:50.253Z,0.30
2019-01-09T07:04:50.497Z,0.30
2019-01-09T07:06:49.820Z,0.29
2019-01-09T07:08:49.810Z,0.25
2019-01-09T07:10:49.840Z,0.24
2019-01-09T07:12:49.886Z,0.24
2019-01-09T07:14:49.882Z,0.22
2019-01-09T07:16:50.165Z,0.20
2019-01-09T07:18:50.167Z,0.18
2019-01-09T07:20:50.180Z,0.18
2019-01-09T07:22:50.108Z,0.17
2019-01-09T07:24:50.114Z,0.18
2019-01-09T07:26:50.239Z,0.19
2019-01-09T07:28:50.237Z,0.20
2019-01-09T07:30:50.252Z,0.21
2019-01-09T07:32:50.223Z,0.23
2019-01-09T07:34:50.669Z,0.24
2019-01-09T07:36:49.758Z,0.25
2019-01-09T07:38:49.813Z,0.26
2019-01-09T07:40:49.830Z,0.27
2019-01-09T07:42:49.994Z,0.29
2019-01-09T07:44:49.970Z,0.30
2019-01-09T07:46:50.109Z,0.32
2019-01-09T07:48:50.100Z,0.35
2019-01-09T07:50:50.049Z,0.36
2019-01-09T07:52:50.023Z,0.38
2019-01-09T07:54:49.998Z,0.39
2019-01-09T07:56:50.192Z,0.41
2019-01-09T07:58:50.190Z,0.42
2019-01-09T08:00:50.119Z,0.44
2019-01-09T08:02:50.092Z,0.45
2019-01-09T08:04:50.217Z,0.46
2019-01-09T08:06:50.448Z,0.47
2019-01-09T08:08:50.421Z,0.47
2019-01-09T08:10:50.374Z,0.48
2019-01-09T08:12:50.354Z,0.49
2019-01-09T08:14:50.320Z,0.50
2019-01-09T08:16:50.565Z,0.51
2019-01-09T08:18:50.554Z,0.56
2019-01-09T08:20:50.570Z,0.58
2019-01-09T08:22:50.536Z,0.57
2019-01-09T08:24:50.495Z,0.55
2019-01-09T08:26:49.737Z,0.54
2019-01-09T08:28:49.703Z,0.52
2019-01-09T08:30:49.768Z,0.51
2019-01-09T08:32:49.714Z,0.51
2019-01-09T08:34:50.160Z,0.51
2019-01-09T08:36:50.253Z,0.51
2019-01-09T08:38:50.219Z,0.52
2019-01-09T08:40:50.213Z,0.53
2019-01-09T08:42:50.348Z,0.55
2019-01-09T08:44:50.389Z,0.57
2019-01-09T08:46:50.464Z,0.58
2019-01-09T08:48:50.461Z,0.61
2019-01-09T08:50:50.403Z,0.62
2019-01-09T08:52:50.486Z,0.64
2019-01-09T08:54:50.404Z,0.68
2019-01-09T08:56:50.549Z,0.70
2019-01-09T08:58:50.602Z,0.73
2019-01-09T09:00:50.569Z,0.73
2019-01-09T09:02:50.712Z,0.79
2019-01-09T09:04:50.174Z,0.79
2019-01-09T09:06:50.305Z,0.81
2019-01-09T09:08:50.312Z,0.83
2019-01-09T09:10:50.310Z,0.84
2019-01-09T09:12:50.280Z,0.84
2019-01-09T09:14:50.268Z,0.85
2019-01-09T09:16:50.563Z,0.85
2019-01-09T09:18:50.552Z,0.85
2019-01-09T09:20:50.481Z,0.85
2019-01-09T09:22:50.455Z,0.85
2019-01-09T09:24:50.436Z,0.84
2019-01-09T09:26:50.540Z,0.82
2019-01-09T09:28:50.519Z,0.81
2019-01-09T09:30:50.441Z,0.80
2019-01-09T09:32:50.428Z,0.80
2019-01-09T09:34:49.810Z,0.80
2019-01-09T09:36:50.283Z,0.81
2019-01-09T09:38:50.292Z,0.82
2019-01-09T09:40:50.239Z,0.83
2019-01-09T09:42:50.207Z,0.82
2019-01-09T09:44:50.399Z,0.81
2019-01-09T09:46:50.570Z,0.82
2019-01-09T09:48:50.538Z,0.85
2019-01-09T09:50:50.518Z,0.89
2019-01-09T09:52:50.520Z,0.93
2019-01-09T09:54:50.507Z,0.94
2019-01-09T09:56:49.746Z,0.93
2019-01-09T09:58:49.695Z,0.92
2019-01-09T10:00:49.689Z,0.93
2019-01-09T10:02:50.672Z,0.93
2019-01-09T10:04:49.973Z,0.93
2019-01-09T10:06:50.247Z,0.96
2019-01-09T10:08:50.261Z,0.94
2019-01-09T10:10:50.218Z,0.92
2019-01-09T10:12:50.211Z,0.92
2019-01-09T10:14:50.128Z,0.91
2019-01-09T10:16:50.319Z,0.88
2019-01-09T10:18:50.402Z,0.85
2019-01-09T10:20:50.403Z,0.80
2019-01-09T10:22:50.403Z,0.77
2019-01-09T10:24:50.338Z,0.74
2019-01-09T10:26:50.644Z,0.74
2019-01-09T10:28:50.565Z,0.69
2019-01-09T10:30:50.535Z,0.69
2019-01-09T10:32:50.567Z,0.59
2019-01-09T10:34:50.070Z,0.56
2019-01-09T10:36:50.259Z,0.56
2019-01-09T10:38:50.269Z,0.55
2019-01-09T10:40:50.267Z,0.55
2019-01-09T10:42:50.240Z,0.55
2019-01-09T10:44:50.221Z,0.57
2019-01-09T10:46:50.341Z,0.63
2019-01-09T10:48:50.354Z,0.65
2019-01-09T10:50:50.317Z,0.73
2019-01-09T10:52:50.377Z,0.76
2019-01-09T10:54:50.358Z,0.85
2019-01-09T10:56:50.582Z,0.88
2019-01-09T10:58:50.648Z,0.93
2019-01-09T11:00:50.649Z,1.00
2019-01-09T11:02:50.662Z,1.00
2019-01-09T11:04:50.156Z,0.98
2019-01-09T11:06:50.320Z,0.97
2019-01-09T11:08:50.318Z,0.96
2019-01-09T11:10:50.291Z,0.95
2019-01-09T11:12:50.206Z,0.96
2019-01-09T11:14:50.164Z,0.98
2019-01-09T11:16:50.453Z,0.99
2019-01-09T11:18:50.525Z,0.99
2019-01-09T11:20:50.538Z,0.98
2019-01-09T11:22:50.554Z,0.98
2019-01-09T11:24:50.569Z,0.98
2019-01-09T11:26:49.839Z,0.98
2019-01-09T11:28:49.978Z,1.00
2019-01-09T11:30:50.020Z,1.01
2019-01-09T11:32:50.051Z,1.03
2019-01-09T11:34:50.357Z,1.05
2019-01-09T11:36:50.505Z,1.05
2019-01-09T11:38:56.275Z,1.06
2019-01-09T11:40:50.329Z,1.06
2019-01-09T11:42:50.264Z,1.09
2019-01-09T11:44:50.340Z,1.09
2019-01-09T11:46:50.462Z,1.21
2019-01-09T11:48:50.419Z,1.24
2019-01-09T11:50:50.433Z,1.28
2019-01-09T11:52:50.406Z,1.29
2019-01-09T11:54:50.420Z,1.30
2019-01-09T11:56:50.501Z,1.31
2019-01-09T11:58:50.466Z,1.34
2019-01-09T12:00:50.510Z,1.34
2019-01-09T12:02:50.512Z,1.36
2019-01-09T12:04:50.048Z,1.41
2019-01-09T12:06:50.208Z,1.41
2019-01-09T12:08:50.171Z,1.39
2019-01-09T12:10:50.170Z,1.39
2019-01-09T12:12:50.258Z,1.36
2019-01-09T12:14:50.191Z,1.34
2019-01-09T12:16:50.477Z,1.33
2019-01-09T12:18:50.414Z,1.32
2019-01-09T12:20:50.421Z,1.31
2019-01-09T12:22:50.386Z,1.30
2019-01-09T12:24:50.306Z,1.30
2019-01-09T12:26:50.475Z,1.30
2019-01-09T12:28:54.251Z,1.29
2019-01-09T12:30:50.336Z,1.28
2019-01-09T12:32:50.306Z,1.27
2019-01-09T12:34:50.495Z,1.23
2019-01-09T12:36:49.787Z,1.20
2019-01-09T12:38:49.831Z,1.09
2019-01-09T12:40:49.850Z,1.05
2019-01-09T12:42:49.886Z,0.97
2019-01-09T12:44:49.921Z,0.95
2019-01-09T12:46:50.081Z,0.91
2019-01-09T12:48:50.075Z,0.89
2019-01-09T12:50:50.103Z,0.90
2019-01-09T12:52:50.109Z,0.91
2019-01-09T12:54:50.086Z,0.88
2019-01-09T12:56:50.253Z,0.88
2019-01-09T12:58:50.163Z,0.82
2019-01-09T13:00:50.092Z,0.82
2019-01-09T13:02:50.124Z,0.80
2019-01-09T13:04:50.289Z,0.79
2019-01-09T13:06:50.439Z,0.77
2019-01-09T13:08:50.382Z,0.74
2019-01-09T13:10:50.409Z,0.71
2019-01-09T13:12:50.354Z,0.67
2019-01-09T13:14:50.629Z,0.65
2019-01-09T13:16:49.782Z,0.61
2019-01-09T13:18:49.709Z,0.58
2019-01-09T13:20:49.698Z,0.51
2019-01-09T13:22:50.784Z,0.51
2019-01-09T13:24:49.898Z,0.44
2019-01-09T13:26:50.057Z,0.42
2019-01-09T13:28:49.999Z,0.34
2019-01-09T13:30:49.996Z,0.34
2019-01-09T13:32:50.083Z,0.32
2019-01-09T13:34:50.281Z,0.32
2019-01-09T13:36:50.480Z,0.26
2019-01-09T13:38:50.419Z,0.23
2019-01-09T13:40:49.840Z,0.19
2019-01-09T13:42:49.795Z,0.17
2019-01-09T13:44:49.855Z,0.14
2019-01-09T13:46:50.049Z,0.12
2019-01-09T13:48:49.970Z,0.09
2019-01-09T13:50:49.923Z,0.06
2019-01-09T13:52:49.990Z,0.03
2019-01-09T18:22:50.212Z,0.00
2019-01-09T18:24:50.222Z,0.03
2019-01-09T18:26:50.331Z,0.03
2019-01-09T18:28:50.315Z,0.03
2019-01-09T18:30:50.396Z,0.03
2019-01-09T18:32:49.857Z,0.01
2019-01-09T18:34:50.232Z,0.00
2019-01-09T18:36:50.530Z,0.02
2019-01-09T18:38:50.537Z,0.02
2019-01-09T18:41:01.772Z,0.03
2019-01-09T18:42:50.244Z,0.03
2019-01-09T18:44:50.289Z,0.02
2019-01-09T18:46:50.521Z,0.01
2019-01-09T18:48:51.470Z,0.00
2019-01-09T18:58:49.996Z,0.00
2019-01-09T19:00:50.076Z,0.00
2019-01-09T19:06:51.200Z,0.00
2019-01-09T19:08:49.848Z,0.00
2019-01-09T19:10:49.852Z,0.00
2019-01-09T19:12:50.991Z,0.02
2019-01-09T19:14:50.023Z,0.02
2019-01-09T19:16:50.207Z,0.03
2019-01-09T19:18:50.262Z,0.04
2019-01-09T19:20:50.292Z,0.05
2019-01-09T19:22:50.252Z,0.07
2019-01-09T19:24:50.284Z,0.08
2019-01-09T19:26:50.489Z,0.10
2019-01-09T19:28:50.523Z,0.11
2019-01-09T19:30:50.543Z,0.13
2019-01-09T19:32:50.846Z,0.13
2019-01-09T19:34:50.213Z,0.13
2019-01-09T19:36:50.427Z,0.15
2019-01-09T19:38:50.384Z,0.15
2019-01-09T19:40:50.419Z,0.15
2019-01-09T19:42:50.378Z,0.16
2019-01-09T19:44:50.453Z,0.16
2019-01-09T19:46:49.742Z,0.15
2019-01-09T19:48:49.718Z,0.15
2019-01-09T19:50:49.785Z,0.14
2019-01-09T19:52:49.799Z,0.14
2019-01-09T19:54:49.994Z,0.12
2019-01-09T19:56:50.118Z,0.11
2019-01-09T19:58:50.193Z,0.11
2019-01-09T20:00:50.275Z,0.11
2019-01-09T20:02:50.260Z,0.11
2019-01-09T20:04:50.420Z,0.10
2019-01-09T20:06:50.621Z,0.10
2019-01-09T20:08:50.791Z,0.08
2019-01-09T20:10:50.041Z,0.08
2019-01-09T20:12:50.307Z,0.08
2019-01-09T20:14:50.563Z,0.09
2019-01-09T20:16:50.179Z,0.07
2019-01-09T20:18:50.753Z,0.08
2019-01-09T20:20:49.888Z,0.08
2019-01-09T20:22:50.104Z,0.08
2019-01-09T20:24:50.447Z,0.09
2019-01-09T20:26:50.830Z,0.10
2019-01-09T20:28:49.919Z,0.12
2019-01-09T20:30:50.156Z,0.14
2019-01-09T20:32:50.229Z,0.15
2019-01-09T20:34:50.687Z,0.16
2019-01-09T20:36:50.163Z,0.16
2019-01-09T20:38:50.314Z,0.16
2019-01-09T20:40:50.656Z,0.17
2019-01-09T20:42:50.027Z,0.17
2019-01-09T20:44:50.231Z,0.17
2019-01-09T20:46:50.645Z,0.18
2019-01-09T20:48:50.733Z,0.16
2019-01-09T20:50:50.046Z,0.17
2019-01-09T20:52:50.115Z,0.18
2019-01-09T20:54:50.307Z,0.19
2019-01-09T20:56:50.831Z,0.24
2019-01-09T20:58:50.093Z,0.24
2019-01-09T21:00:50.385Z,0.25
2019-01-09T21:02:50.653Z,0.25
2019-01-09T21:04:50.497Z,0.25
2019-01-09T21:06:49.949Z,0.26
2019-01-09T21:09:00.409Z,0.25
2019-01-09T21:10:50.527Z,0.24
2019-01-09T21:12:50.774Z,0.24
2019-01-09T21:14:49.954Z,0.25
2019-01-09T21:16:50.565Z,0.26
2019-01-09T21:18:50.593Z,0.27
2019-01-09T21:20:50.607Z,0.27
2019-01-09T21:22:50.654Z,0.29
2019-01-09T21:24:49.746Z,0.29
2019-01-09T21:26:50.050Z,0.26
2019-01-09T21:28:50.079Z,0.27
2019-01-09T21:30:50.117Z,0.28
2019-01-09T21:32:50.138Z,0.29
2019-01-09T21:34:50.467Z,0.29
2019-01-09T21:36:50.599Z,0.28
2019-01-09T21:38:49.677Z,0.28
2019-01-09T21:40:49.778Z,0.28
2019-01-09T21:42:49.772Z,0.28
2019-01-09T21:44:49.814Z,0.27
2019-01-09T21:46:49.994Z,0.26
2019-01-09T21:48:50.055Z,0.26
2019-01-09T21:50:49.996Z,0.26
2019-01-09T21:52:50.042Z,0.26
2019-01-09T21:54:50.007Z,0.26
2019-01-09T21:56:50.143Z,0.26
2019-01-09T21:58:50.177Z,0.25
2019-01-09T22:00:50.286Z,0.24
2019-01-09T22:02:50.331Z,0.24
2019-01-09T22:04:49.735Z,0.23
2019-01-09T22:06:50.049Z,0.22
2019-01-09T22:08:50.014Z,0.21
2019-01-09T22:10:50.035Z,0.20
2019-01-09T22:12:50.064Z,0.21
2019-01-09T22:14:50.031Z,0.22
2019-01-09T22:16:50.305Z,0.23
2019-01-09T22:18:50.378Z,0.22
2019-01-09T22:20:50.336Z,0.22
2019-01-09T22:22:50.408Z,0.21
2019-01-09T22:24:50.356Z,0.21
2019-01-09T22:26:50.572Z,0.21
2019-01-09T22:28:50.573Z,0.22
2019-01-09T22:30:50.580Z,0.22
2019-01-09T22:32:50.655Z,0.22
2019-01-09T22:34:49.989Z,0.22
2019-01-09T22:36:50.152Z,0.22
2019-01-09T22:38:50.175Z,0.22
2019-01-09T22:40:50.161Z,0.22
2019-01-09T22:42:50.252Z,0.22
2019-01-09T22:44:50.240Z,0.22
2019-01-09T22:46:50.544Z,0.21
2019-01-09T22:48:50.512Z,0.20
2019-01-09T22:50:50.486Z,0.18
2019-01-09T22:52:50.472Z,0.17
2019-01-09T22:54:50.434Z,0.19
2019-01-09T22:56:50.670Z,0.19
2019-01-09T22:58:49.736Z,0.18
2019-01-09T23:00:49.764Z,0.19
2019-01-09T23:02:49.840Z,0.19
2019-01-09T23:04:50.174Z,0.20
2019-01-09T23:06:50.341Z,0.21
2019-01-09T23:08:50.372Z,0.22
2019-01-09T23:10:57.628Z,0.22
2019-01-09T23:12:49.763Z,0.23
2019-01-09T23:14:49.724Z,0.23
2019-01-09T23:16:49.939Z,0.23
2019-01-09T23:18:49.983Z,0.23
2019-01-09T23:20:50.000Z,0.23
2019-01-09T23:22:49.941Z,0.23
2019-01-09T23:24:49.948Z,0.23
2019-01-09T23:26:50.079Z,0.22
2019-01-09T23:28:50.134Z,0.22
2019-01-09T23:30:50.178Z,0.22
2019-01-09T23:32:50.163Z,0.22
2019-01-09T23:34:50.415Z,0.23
2019-01-09T23:36:50.641Z,0.23
2019-01-09T23:38:50.608Z,0.23
2019-01-09T23:40:49.734Z,0.23
2019-01-09T23:42:49.795Z,0.22
2019-01-09T23:44:49.804Z,0.22
2019-01-09T23:46:50.052Z,0.22
2019-01-09T23:48:50.069Z,0.22
2019-01-09T23:50:50.074Z,0.22
2019-01-09T23:52:50.122Z,0.21
2019-01-09T23:54:50.256Z,0.21
2019-01-09T23:56:50.352Z,0.21
2019-01-09T23:58:50.370Z,0.22
